sensor_id;sensor_type;location;lat;lon;timestamp;temperature;humidity
75190;HTU21D;69198;44.694;37.790;2023-10-19T00:00:58;10.49;60.07
75190;HTU21D;69198;44.694;37.790;2023-10-19T00:02:00;10.46;60.03
75190;HTU21D;69198;44.694;37.790;2023-10-19T00:03:02;10.45;59.96
75190;HTU21D;69198;44.694;37.790;2023-10-19T00:04:03;10.44;59.77
75190;HTU21D;69198;44.694;37.790;2023-10-19T00:05:08;10.44;59.64
75190;HTU21D;69198;44.694;37.790;2023-10-19T00:06:10;10.44;59.64
75190;HTU21D;69198;44.694;37.790;2023-10-19T00:07:12;10.43;59.45
75190;HTU21D;69198;44.694;37.790;2023-10-19T00:08:16;10.44;59.19
75190;HTU21D;69198;44.694;37.790;2023-10-19T00:09:20;10.46;58.99
75190;HTU21D;69198;44.694;37.790;2023-10-19T00:10:21;10.48;58.83
75190;HTU21D;69198;44.694;37.790;2023-10-19T00:11:22;10.50;58.85
75190;HTU21D;69198;44.694;37.790;2023-10-19T00:12:25;10.50;58.81
75190;HTU21D;69198;44.694;37.790;2023-10-19T00:13:26;10.46;58.83
75190;HTU21D;69198;44.694;37.790;2023-10-19T00:14:29;10.43;58.86
75190;HTU21D;69198;44.694;37.790;2023-10-19T00:15:33;10.45;58.87
75190;HTU21D;69198;44.694;37.790;2023-10-19T00:16:35;10.41;58.92
75190;HTU21D;69198;44.694;37.790;2023-10-19T00:17:36;10.38;58.96
75190;HTU21D;69198;44.694;37.790;2023-10-19T00:18:39;10.36;58.96
75190;HTU21D;69198;44.694;37.790;2023-10-19T00:19:43;10.34;58.96
75190;HTU21D;69198;44.694;37.790;2023-10-19T00:20:58;10.31;58.94
75190;HTU21D;69198;44.694;37.790;2023-10-19T00:22:02;10.33;58.86
75190;HTU21D;69198;44.694;37.790;2023-10-19T00:23:09;10.30;58.90
75190;HTU21D;69198;44.694;37.790;2023-10-19T00:24:11;10.29;58.93
75190;HTU21D;69198;44.694;37.790;2023-10-19T00:25:12;10.27;58.99
75190;HTU21D;69198;44.694;37.790;2023-10-19T00:26:14;10.27;58.96
75190;HTU21D;69198;44.694;37.790;2023-10-19T00:27:28;10.26;59.03
75190;HTU21D;69198;44.694;37.790;2023-10-19T00:28:29;10.27;59.17
75190;HTU21D;69198;44.694;37.790;2023-10-19T00:29:29;10.33;59.04
75190;HTU21D;69198;44.694;37.790;2023-10-19T00:30:34;10.33;58.91
75190;HTU21D;69198;44.694;37.790;2023-10-19T00:31:38;10.30;58.92
75190;HTU21D;69198;44.694;37.790;2023-10-19T00:32:41;10.31;58.78
75190;HTU21D;69198;44.694;37.790;2023-10-19T00:33:43;10.33;58.72
75190;HTU21D;69198;44.694;37.790;2023-10-19T00:34:44;10.31;58.76
75190;HTU21D;69198;44.694;37.790;2023-10-19T00:35:52;10.28;58.76
75190;HTU21D;69198;44.694;37.790;2023-10-19T00:37:01;10.28;58.64
75190;HTU21D;69198;44.694;37.790;2023-10-19T00:38:08;10.25;58.72
75190;HTU21D;69198;44.694;37.790;2023-10-19T00:39:27;10.21;58.83
75190;HTU21D;69198;44.694;37.790;2023-10-19T00:40:28;10.19;58.87
75190;HTU21D;69198;44.694;37.790;2023-10-19T00:41:37;10.18;58.87
75190;HTU21D;69198;44.694;37.790;2023-10-19T00:42:38;10.18;58.87
75190;HTU21D;69198;44.694;37.790;2023-10-19T00:43:46;10.18;58.89
75190;HTU21D;69198;44.694;37.790;2023-10-19T00:44:50;10.18;58.94
75190;HTU21D;69198;44.694;37.790;2023-10-19T00:45:51;10.20;58.85
75190;HTU21D;69198;44.694;37.790;2023-10-19T00:46:52;10.20;58.91
75190;HTU21D;69198;44.694;37.790;2023-10-19T00:48:04;10.21;58.94
75190;HTU21D;69198;44.694;37.790;2023-10-19T00:49:10;10.21;58.85
75190;HTU21D;69198;44.694;37.790;2023-10-19T00:50:15;10.22;58.83
75190;HTU21D;69198;44.694;37.790;2023-10-19T00:51:21;10.24;58.81
75190;HTU21D;69198;44.694;37.790;2023-10-19T00:52:31;10.24;58.92
75190;HTU21D;69198;44.694;37.790;2023-10-19T00:53:35;10.26;59.03
75190;HTU21D;69198;44.694;37.790;2023-10-19T00:54:39;10.28;58.89
75190;HTU21D;69198;44.694;37.790;2023-10-19T00:55:52;10.33;58.64
75190;HTU21D;69198;44.694;37.790;2023-10-19T00:56:54;10.36;58.69
75190;HTU21D;69198;44.694;37.790;2023-10-19T00:58:05;10.39;58.56
75190;HTU21D;69198;44.694;37.790;2023-10-19T00:59:10;10.39;58.54
75190;HTU21D;69198;44.694;37.790;2023-10-19T01:00:21;10.42;58.37
75190;HTU21D;69198;44.694;37.790;2023-10-19T01:01:31;10.41;58.51
75190;HTU21D;69198;44.694;37.790;2023-10-19T01:02:32;10.42;58.58
75190;HTU21D;69198;44.694;37.790;2023-10-19T01:03:33;10.46;58.32
75190;HTU21D;69198;44.694;37.790;2023-10-19T01:04:38;10.44;58.47
75190;HTU21D;69198;44.694;37.790;2023-10-19T01:05:43;10.45;58.77
75190;HTU21D;69198;44.694;37.790;2023-10-19T01:06:51;10.45;58.86
75190;HTU21D;69198;44.694;37.790;2023-10-19T01:08:10;10.46;58.51
75190;HTU21D;69198;44.694;37.790;2023-10-19T01:09:33;10.49;58.18
75190;HTU21D;69198;44.694;37.790;2023-10-19T01:10:36;10.49;58.02
75190;HTU21D;69198;44.694;37.790;2023-10-19T01:11:37;10.48;57.96
75190;HTU21D;69198;44.694;37.790;2023-10-19T01:12:38;10.48;58.09
75190;HTU21D;69198;44.694;37.790;2023-10-19T01:13:42;10.46;58.18
75190;HTU21D;69198;44.694;37.790;2023-10-19T01:15:13;10.49;58.03
75190;HTU21D;69198;44.694;37.790;2023-10-19T01:16:18;10.43;58.18
75190;HTU21D;69198;44.694;37.790;2023-10-19T01:17:21;10.41;58.50
75190;HTU21D;69198;44.694;37.790;2023-10-19T01:18:22;10.43;58.37
75190;HTU21D;69198;44.694;37.790;2023-10-19T01:19:29;10.44;58.28
75190;HTU21D;69198;44.694;37.790;2023-10-19T01:20:32;10.43;58.17
75190;HTU21D;69198;44.694;37.790;2023-10-19T01:21:33;10.40;58.16
75190;HTU21D;69198;44.694;37.790;2023-10-19T01:22:53;10.43;58.12
75190;HTU21D;69198;44.694;37.790;2023-10-19T01:23:54;10.41;58.35
75190;HTU21D;69198;44.694;37.790;2023-10-19T01:24:55;10.38;58.37
75190;HTU21D;69198;44.694;37.790;2023-10-19T01:25:58;10.38;58.19
75190;HTU21D;69198;44.694;37.790;2023-10-19T01:26:59;10.38;58.09
75190;HTU21D;69198;44.694;37.790;2023-10-19T01:28:06;10.37;58.01
75190;HTU21D;69198;44.694;37.790;2023-10-19T01:29:10;10.34;57.97
75190;HTU21D;69198;44.694;37.790;2023-10-19T01:30:15;10.35;57.96
75190;HTU21D;69198;44.694;37.790;2023-10-19T01:31:20;10.33;57.99
75190;HTU21D;69198;44.694;37.790;2023-10-19T01:32:32;10.31;58.03
75190;HTU21D;69198;44.694;37.790;2023-10-19T01:33:33;10.35;58.19
75190;HTU21D;69198;44.694;37.790;2023-10-19T01:34:38;10.34;58.22
75190;HTU21D;69198;44.694;37.790;2023-10-19T01:35:39;10.34;58.12
75190;HTU21D;69198;44.694;37.790;2023-10-19T01:37:00;10.33;58.00
75190;HTU21D;69198;44.694;37.790;2023-10-19T01:38:04;10.30;58.06
75190;HTU21D;69198;44.694;37.790;2023-10-19T01:39:05;10.29;58.21
75190;HTU21D;69198;44.694;37.790;2023-10-19T01:40:11;10.28;58.74
75190;HTU21D;69198;44.694;37.790;2023-10-19T01:41:16;10.27;58.93
75190;HTU21D;69198;44.694;37.790;2023-10-19T01:42:20;10.28;58.70
75190;HTU21D;69198;44.694;37.790;2023-10-19T01:43:21;10.30;58.38
75190;HTU21D;69198;44.694;37.790;2023-10-19T01:44:22;10.34;58.20
75190;HTU21D;69198;44.694;37.790;2023-10-19T01:45:25;10.36;58.28
75190;HTU21D;69198;44.694;37.790;2023-10-19T01:46:26;10.33;58.45
75190;HTU21D;69198;44.694;37.790;2023-10-19T01:47:31;10.37;58.54
75190;HTU21D;69198;44.694;37.790;2023-10-19T01:48:32;10.38;58.56
75190;HTU21D;69198;44.694;37.790;2023-10-19T01:49:36;10.44;58.28
75190;HTU21D;69198;44.694;37.790;2023-10-19T01:50:37;10.42;58.23
75190;HTU21D;69198;44.694;37.790;2023-10-19T01:51:40;10.49;58.33
75190;HTU21D;69198;44.694;37.790;2023-10-19T01:52:41;10.45;58.41
75190;HTU21D;69198;44.694;37.790;2023-10-19T01:53:42;10.44;58.25
75190;HTU21D;69198;44.694;37.790;2023-10-19T01:54:47;10.42;58.13
75190;HTU21D;69198;44.694;37.790;2023-10-19T01:55:48;10.39;58.25
75190;HTU21D;69198;44.694;37.790;2023-10-19T01:56:58;10.37;58.28
75190;HTU21D;69198;44.694;37.790;2023-10-19T01:57:59;10.37;58.06
75190;HTU21D;69198;44.694;37.790;2023-10-19T01:59:00;10.35;58.34
75190;HTU21D;69198;44.694;37.790;2023-10-19T02:00:01;10.37;58.28
75190;HTU21D;69198;44.694;37.790;2023-10-19T02:01:14;10.37;58.24
75190;HTU21D;69198;44.694;37.790;2023-10-19T02:02:15;10.33;58.35
75190;HTU21D;69198;44.694;37.790;2023-10-19T02:03:16;10.36;58.13
75190;HTU21D;69198;44.694;37.790;2023-10-19T02:04:18;10.35;58.13
75190;HTU21D;69198;44.694;37.790;2023-10-19T02:05:22;10.33;58.19
75190;HTU21D;69198;44.694;37.790;2023-10-19T02:06:28;10.34;58.22
75190;HTU21D;69198;44.694;37.790;2023-10-19T02:07:39;10.37;58.12
75190;HTU21D;69198;44.694;37.790;2023-10-19T02:08:40;10.38;58.28
75190;HTU21D;69198;44.694;37.790;2023-10-19T02:09:44;10.40;58.66
75190;HTU21D;69198;44.694;37.790;2023-10-19T02:10:47;10.43;59.25
75190;HTU21D;69198;44.694;37.790;2023-10-19T02:11:53;10.49;58.67
75190;HTU21D;69198;44.694;37.790;2023-10-19T02:12:58;10.49;58.58
75190;HTU21D;69198;44.694;37.790;2023-10-19T02:14:08;10.53;58.33
75190;HTU21D;69198;44.694;37.790;2023-10-19T02:15:16;10.53;58.68
75190;HTU21D;69198;44.694;37.790;2023-10-19T02:16:18;10.50;59.00
75190;HTU21D;69198;44.694;37.790;2023-10-19T02:17:22;10.49;58.81
75190;HTU21D;69198;44.694;37.790;2023-10-19T02:18:24;10.55;58.68
75190;HTU21D;69198;44.694;37.790;2023-10-19T02:19:26;10.62;58.19
75190;HTU21D;69198;44.694;37.790;2023-10-19T02:20:28;10.63;58.08
75190;HTU21D;69198;44.694;37.790;2023-10-19T02:21:29;10.64;58.41
75190;HTU21D;69198;44.694;37.790;2023-10-19T02:22:31;10.59;58.89
75190;HTU21D;69198;44.694;37.790;2023-10-19T02:23:32;10.52;59.19
75190;HTU21D;69198;44.694;37.790;2023-10-19T02:24:36;10.45;59.12
75190;HTU21D;69198;44.694;37.790;2023-10-19T02:25:37;10.43;58.88
75190;HTU21D;69198;44.694;37.790;2023-10-19T02:26:38;10.44;58.82
75190;HTU21D;69198;44.694;37.790;2023-10-19T02:27:41;10.43;59.02
75190;HTU21D;69198;44.694;37.790;2023-10-19T02:28:42;10.41;58.99
75190;HTU21D;69198;44.694;37.790;2023-10-19T02:29:44;10.40;58.90
75190;HTU21D;69198;44.694;37.790;2023-10-19T02:30:47;10.37;59.08
75190;HTU21D;69198;44.694;37.790;2023-10-19T02:31:48;10.39;59.63
75190;HTU21D;69198;44.694;37.790;2023-10-19T02:32:50;10.38;59.86
75190;HTU21D;69198;44.694;37.790;2023-10-19T02:33:53;10.39;59.16
75190;HTU21D;69198;44.694;37.790;2023-10-19T02:35:01;10.38;58.99
75190;HTU21D;69198;44.694;37.790;2023-10-19T02:36:03;10.36;58.83
75190;HTU21D;69198;44.694;37.790;2023-10-19T02:37:04;10.36;58.62
75190;HTU21D;69198;44.694;37.790;2023-10-19T02:38:05;10.35;58.44
75190;HTU21D;69198;44.694;37.790;2023-10-19T02:39:08;10.36;58.27
75190;HTU21D;69198;44.694;37.790;2023-10-19T02:40:10;10.36;58.34
75190;HTU21D;69198;44.694;37.790;2023-10-19T02:41:20;10.33;58.44
75190;HTU21D;69198;44.694;37.790;2023-10-19T02:42:21;10.33;58.88
75190;HTU21D;69198;44.694;37.790;2023-10-19T02:43:23;10.33;59.12
75190;HTU21D;69198;44.694;37.790;2023-10-19T02:44:24;10.30;59.12
75190;HTU21D;69198;44.694;37.790;2023-10-19T02:45:26;10.31;58.90
75190;HTU21D;69198;44.694;37.790;2023-10-19T02:46:32;10.31;58.93
75190;HTU21D;69198;44.694;37.790;2023-10-19T02:47:33;10.33;59.19
75190;HTU21D;69198;44.694;37.790;2023-10-19T02:48:34;10.30;59.20
75190;HTU21D;69198;44.694;37.790;2023-10-19T02:49:35;10.33;59.32
75190;HTU21D;69198;44.694;37.790;2023-10-19T02:50:41;10.29;59.45
75190;HTU21D;69198;44.694;37.790;2023-10-19T02:51:42;10.26;59.76
75190;HTU21D;69198;44.694;37.790;2023-10-19T02:52:46;10.26;60.18
75190;HTU21D;69198;44.694;37.790;2023-10-19T02:53:47;10.25;60.19
75190;HTU21D;69198;44.694;37.790;2023-10-19T02:54:48;10.24;60.46
75190;HTU21D;69198;44.694;37.790;2023-10-19T02:55:49;10.23;60.46
75190;HTU21D;69198;44.694;37.790;2023-10-19T02:56:53;10.18;60.28
75190;HTU21D;69198;44.694;37.790;2023-10-19T02:57:57;10.15;60.13
75190;HTU21D;69198;44.694;37.790;2023-10-19T02:58:59;10.15;59.87
75190;HTU21D;69198;44.694;37.790;2023-10-19T03:00:05;10.14;59.65
75190;HTU21D;69198;44.694;37.790;2023-10-19T03:01:19;10.10;59.55
75190;HTU21D;69198;44.694;37.790;2023-10-19T03:02:23;10.06;59.61
75190;HTU21D;69198;44.694;37.790;2023-10-19T03:03:26;10.03;59.93
75190;HTU21D;69198;44.694;37.790;2023-10-19T03:04:27;10.05;60.06
75190;HTU21D;69198;44.694;37.790;2023-10-19T03:05:31;10.04;60.10
75190;HTU21D;69198;44.694;37.790;2023-10-19T03:06:35;10.03;60.20
75190;HTU21D;69198;44.694;37.790;2023-10-19T03:07:36;9.99;60.09
75190;HTU21D;69198;44.694;37.790;2023-10-19T03:08:39;9.97;59.86
75190;HTU21D;69198;44.694;37.790;2023-10-19T03:09:40;9.92;59.91
75190;HTU21D;69198;44.694;37.790;2023-10-19T03:10:49;9.91;59.93
75190;HTU21D;69198;44.694;37.790;2023-10-19T03:12:05;9.85;60.05
75190;HTU21D;69198;44.694;37.790;2023-10-19T03:13:10;9.84;60.01
75190;HTU21D;69198;44.694;37.790;2023-10-19T03:14:15;9.83;60.04
75190;HTU21D;69198;44.694;37.790;2023-10-19T03:15:17;9.81;60.10
75190;HTU21D;69198;44.694;37.790;2023-10-19T03:16:21;9.80;60.18
75190;HTU21D;69198;44.694;37.790;2023-10-19T03:17:24;9.77;60.18
75190;HTU21D;69198;44.694;37.790;2023-10-19T03:18:26;9.76;60.13
75190;HTU21D;69198;44.694;37.790;2023-10-19T03:19:29;9.77;60.02
75190;HTU21D;69198;44.694;37.790;2023-10-19T03:20:30;9.76;59.96
75190;HTU21D;69198;44.694;37.790;2023-10-19T03:21:34;9.70;59.98
75190;HTU21D;69198;44.694;37.790;2023-10-19T03:22:43;9.67;60.02
75190;HTU21D;69198;44.694;37.790;2023-10-19T03:23:46;9.66;60.02
75190;HTU21D;69198;44.694;37.790;2023-10-19T03:24:48;9.64;60.10
75190;HTU21D;69198;44.694;37.790;2023-10-19T03:25:58;9.62;60.14
75190;HTU21D;69198;44.694;37.790;2023-10-19T03:27:10;9.65;60.09
75190;HTU21D;69198;44.694;37.790;2023-10-19T03:28:19;9.62;60.08
75190;HTU21D;69198;44.694;37.790;2023-10-19T03:29:20;9.61;60.08
75190;HTU21D;69198;44.694;37.790;2023-10-19T03:30:32;9.56;60.17
75190;HTU21D;69198;44.694;37.790;2023-10-19T03:31:36;9.56;60.17
75190;HTU21D;69198;44.694;37.790;2023-10-19T03:32:44;9.59;60.12
75190;HTU21D;69198;44.694;37.790;2023-10-19T03:33:45;9.61;60.06
75190;HTU21D;69198;44.694;37.790;2023-10-19T03:34:49;9.59;60.09
75190;HTU21D;69198;44.694;37.790;2023-10-19T03:35:56;9.59;60.10
75190;HTU21D;69198;44.694;37.790;2023-10-19T03:36:56;9.62;60.06
75190;HTU21D;69198;44.694;37.790;2023-10-19T03:37:58;9.64;59.99
75190;HTU21D;69198;44.694;37.790;2023-10-19T03:39:02;9.64;59.99
75190;HTU21D;69198;44.694;37.790;2023-10-19T03:40:15;9.64;60.06
75190;HTU21D;69198;44.694;37.790;2023-10-19T03:41:21;9.65;60.05
75190;HTU21D;69198;44.694;37.790;2023-10-19T03:42:22;9.67;59.94
75190;HTU21D;69198;44.694;37.790;2023-10-19T03:43:26;9.69;59.91
75190;HTU21D;69198;44.694;37.790;2023-10-19T03:44:28;9.69;59.89
75190;HTU21D;69198;44.694;37.790;2023-10-19T03:45:39;9.69;59.92
75190;HTU21D;69198;44.694;37.790;2023-10-19T03:46:45;9.67;59.94
75190;HTU21D;69198;44.694;37.790;2023-10-19T03:48:01;9.66;59.93
75190;HTU21D;69198;44.694;37.790;2023-10-19T03:49:08;9.66;59.92
75190;HTU21D;69198;44.694;37.790;2023-10-19T03:50:13;9.66;59.98
75190;HTU21D;69198;44.694;37.790;2023-10-19T03:51:21;9.65;60.09
75190;HTU21D;69198;44.694;37.790;2023-10-19T03:52:25;9.63;60.18
75190;HTU21D;69198;44.694;37.790;2023-10-19T03:53:31;9.64;60.19
75190;HTU21D;69198;44.694;37.790;2023-10-19T03:54:33;9.64;60.18
75190;HTU21D;69198;44.694;37.790;2023-10-19T03:55:38;9.62;60.15
75190;HTU21D;69198;44.694;37.790;2023-10-19T03:56:39;9.62;60.12
75190;HTU21D;69198;44.694;37.790;2023-10-19T03:57:41;9.61;60.12
75190;HTU21D;69198;44.694;37.790;2023-10-19T03:58:42;9.59;60.10
75190;HTU21D;69198;44.694;37.790;2023-10-19T03:59:48;9.57;60.12
75190;HTU21D;69198;44.694;37.790;2023-10-19T04:01:00;9.59;60.09
75190;HTU21D;69198;44.694;37.790;2023-10-19T04:02:08;9.63;60.04
75190;HTU21D;69198;44.694;37.790;2023-10-19T04:03:22;9.72;59.94
75190;HTU21D;69198;44.694;37.790;2023-10-19T04:04:26;9.82;59.76
75190;HTU21D;69198;44.694;37.790;2023-10-19T04:05:29;9.86;59.56
75190;HTU21D;69198;44.694;37.790;2023-10-19T04:06:32;9.90;59.44
75190;HTU21D;69198;44.694;37.790;2023-10-19T04:07:33;9.90;59.46
75190;HTU21D;69198;44.694;37.790;2023-10-19T04:08:34;9.90;59.48
75190;HTU21D;69198;44.694;37.790;2023-10-19T04:09:38;9.91;59.43
75190;HTU21D;69198;44.694;37.790;2023-10-19T04:10:57;9.93;59.41
75190;HTU21D;69198;44.694;37.790;2023-10-19T04:12:22;9.96;59.51
75190;HTU21D;69198;44.694;37.790;2023-10-19T04:13:23;10.04;59.32
75190;HTU21D;69198;44.694;37.790;2023-10-19T04:14:25;10.08;59.20
75190;HTU21D;69198;44.694;37.790;2023-10-19T04:15:26;10.20;59.09
75190;HTU21D;69198;44.694;37.790;2023-10-19T04:16:30;10.39;58.83
75190;HTU21D;69198;44.694;37.790;2023-10-19T04:17:32;10.63;58.38
75190;HTU21D;69198;44.694;37.790;2023-10-19T04:18:34;10.78;58.21
75190;HTU21D;69198;44.694;37.790;2023-10-19T04:19:35;10.84;58.00
75190;HTU21D;69198;44.694;37.790;2023-10-19T04:20:37;10.87;57.68
75190;HTU21D;69198;44.694;37.790;2023-10-19T04:21:53;10.82;57.67
75190;HTU21D;69198;44.694;37.790;2023-10-19T04:22:56;10.82;57.80
75190;HTU21D;69198;44.694;37.790;2023-10-19T04:23:59;10.90;57.81
75190;HTU21D;69198;44.694;37.790;2023-10-19T04:25:00;11.09;57.39
75190;HTU21D;69198;44.694;37.790;2023-10-19T04:26:02;11.36;56.91
75190;HTU21D;69198;44.694;37.790;2023-10-19T04:27:11;11.70;56.36
75190;HTU21D;69198;44.694;37.790;2023-10-19T04:28:14;12.04;55.77
75190;HTU21D;69198;44.694;37.790;2023-10-19T04:29:15;12.31;55.17
75190;HTU21D;69198;44.694;37.790;2023-10-19T04:30:19;12.58;54.24
75190;HTU21D;69198;44.694;37.790;2023-10-19T04:31:25;12.76;53.42
75190;HTU21D;69198;44.694;37.790;2023-10-19T04:32:26;12.91;52.89
75190;HTU21D;69198;44.694;37.790;2023-10-19T04:33:27;13.05;52.85
75190;HTU21D;69198;44.694;37.790;2023-10-19T04:34:29;13.22;52.75
75190;HTU21D;69198;44.694;37.790;2023-10-19T04:35:30;13.41;52.30
75190;HTU21D;69198;44.694;37.790;2023-10-19T04:36:33;13.62;51.81
75190;HTU21D;69198;44.694;37.790;2023-10-19T04:37:35;13.77;51.28
75190;HTU21D;69198;44.694;37.790;2023-10-19T04:38:37;13.90;50.79
75190;HTU21D;69198;44.694;37.790;2023-10-19T04:39:37;13.96;50.34
75190;HTU21D;69198;44.694;37.790;2023-10-19T04:40:41;14.07;49.95
75190;HTU21D;69198;44.694;37.790;2023-10-19T04:41:42;14.14;49.66
75190;HTU21D;69198;44.694;37.790;2023-10-19T04:42:45;14.24;49.38
75190;HTU21D;69198;44.694;37.790;2023-10-19T04:43:46;14.30;49.10
75190;HTU21D;69198;44.694;37.790;2023-10-19T04:44:50;14.39;48.93
75190;HTU21D;69198;44.694;37.790;2023-10-19T04:45:51;14.52;49.08
75190;HTU21D;69198;44.694;37.790;2023-10-19T04:46:52;14.64;48.66
75190;HTU21D;69198;44.694;37.790;2023-10-19T04:47:53;14.73;47.83
75190;HTU21D;69198;44.694;37.790;2023-10-19T04:48:55;14.78;47.99
75190;HTU21D;69198;44.694;37.790;2023-10-19T04:49:56;14.89;47.58
75190;HTU21D;69198;44.694;37.790;2023-10-19T04:50:57;14.97;47.53
75190;HTU21D;69198;44.694;37.790;2023-10-19T04:51:58;15.06;47.03
75190;HTU21D;69198;44.694;37.790;2023-10-19T04:52:59;15.13;46.48
75190;HTU21D;69198;44.694;37.790;2023-10-19T04:54:00;15.16;46.45
75190;HTU21D;69198;44.694;37.790;2023-10-19T04:55:02;15.27;46.25
75190;HTU21D;69198;44.694;37.790;2023-10-19T04:56:04;15.33;46.02
75190;HTU21D;69198;44.694;37.790;2023-10-19T04:57:05;15.41;45.90
75190;HTU21D;69198;44.694;37.790;2023-10-19T04:58:06;15.53;46.00
75190;HTU21D;69198;44.694;37.790;2023-10-19T04:59:07;15.70;45.73
75190;HTU21D;69198;44.694;37.790;2023-10-19T05:00:09;15.85;44.93
75190;HTU21D;69198;44.694;37.790;2023-10-19T05:01:14;15.89;44.80
75190;HTU21D;69198;44.694;37.790;2023-10-19T05:02:15;15.93;44.65
75190;HTU21D;69198;44.694;37.790;2023-10-19T05:03:16;15.95;44.14
75190;HTU21D;69198;44.694;37.790;2023-10-19T05:04:19;15.97;43.93
75190;HTU21D;69198;44.694;37.790;2023-10-19T05:05:21;15.93;43.91
75190;HTU21D;69198;44.694;37.790;2023-10-19T05:06:22;15.97;44.01
75190;HTU21D;69198;44.694;37.790;2023-10-19T05:07:23;16.03;43.84
75190;HTU21D;69198;44.694;37.790;2023-10-19T05:08:24;16.07;43.56
75190;HTU21D;69198;44.694;37.790;2023-10-19T05:09:26;16.10;43.60
75190;HTU21D;69198;44.694;37.790;2023-10-19T05:10:27;16.13;43.42
75190;HTU21D;69198;44.694;37.790;2023-10-19T05:11:27;16.20;43.51
75190;HTU21D;69198;44.694;37.790;2023-10-19T05:12:29;16.31;43.58
75190;HTU21D;69198;44.694;37.790;2023-10-19T05:13:31;16.39;42.93
75190;HTU21D;69198;44.694;37.790;2023-10-19T05:14:32;16.40;42.81
75190;HTU21D;69198;44.694;37.790;2023-10-19T05:15:33;16.43;43.06
75190;HTU21D;69198;44.694;37.790;2023-10-19T05:16:37;16.55;42.96
75190;HTU21D;69198;44.694;37.790;2023-10-19T05:17:38;16.65;42.64
75190;HTU21D;69198;44.694;37.790;2023-10-19T05:18:41;16.71;42.03
75190;HTU21D;69198;44.694;37.790;2023-10-19T05:19:42;16.66;41.68
75190;HTU21D;69198;44.694;37.790;2023-10-19T05:20:43;16.64;41.74
75190;HTU21D;69198;44.694;37.790;2023-10-19T05:21:44;16.64;41.90
75190;HTU21D;69198;44.694;37.790;2023-10-19T05:22:45;16.69;41.70
75190;HTU21D;69198;44.694;37.790;2023-10-19T05:23:46;16.71;41.65
75190;HTU21D;69198;44.694;37.790;2023-10-19T05:24:47;16.75;41.45
75190;HTU21D;69198;44.694;37.790;2023-10-19T05:25:48;16.79;41.04
75190;HTU21D;69198;44.694;37.790;2023-10-19T05:26:49;16.74;41.30
75190;HTU21D;69198;44.694;37.790;2023-10-19T05:27:50;16.72;41.13
75190;HTU21D;69198;44.694;37.790;2023-10-19T05:28:51;16.70;41.00
75190;HTU21D;69198;44.694;37.790;2023-10-19T05:29:52;16.74;40.62
75190;HTU21D;69198;44.694;37.790;2023-10-19T05:30:53;16.75;40.89
75190;HTU21D;69198;44.694;37.790;2023-10-19T05:31:55;16.93;41.13
75190;HTU21D;69198;44.694;37.790;2023-10-19T05:32:59;17.11;40.65
75190;HTU21D;69198;44.694;37.790;2023-10-19T05:34:02;17.22;40.49
75190;HTU21D;69198;44.694;37.790;2023-10-19T05:35:03;17.36;40.55
75190;HTU21D;69198;44.694;37.790;2023-10-19T05:36:06;17.49;40.55
75190;HTU21D;69198;44.694;37.790;2023-10-19T05:37:06;17.66;40.34
75190;HTU21D;69198;44.694;37.790;2023-10-19T05:38:09;17.73;39.84
75190;HTU21D;69198;44.694;37.790;2023-10-19T05:39:10;17.72;39.71
75190;HTU21D;69198;44.694;37.790;2023-10-19T05:40:11;17.73;39.42
75190;HTU21D;69198;44.694;37.790;2023-10-19T05:41:15;17.73;39.59
75190;HTU21D;69198;44.694;37.790;2023-10-19T05:42:17;17.78;39.14
75190;HTU21D;69198;44.694;37.790;2023-10-19T05:43:18;17.83;38.88
75190;HTU21D;69198;44.694;37.790;2023-10-19T05:44:19;17.89;39.04
75190;HTU21D;69198;44.694;37.790;2023-10-19T05:45:20;17.99;38.60
75190;HTU21D;69198;44.694;37.790;2023-10-19T05:46:21;18.04;38.49
75190;HTU21D;69198;44.694;37.790;2023-10-19T05:47:25;18.09;38.44
75190;HTU21D;69198;44.694;37.790;2023-10-19T05:48:26;18.10;38.04
75190;HTU21D;69198;44.694;37.790;2023-10-19T05:49:27;18.08;38.11
75190;HTU21D;69198;44.694;37.790;2023-10-19T05:50:35;18.13;38.35
75190;HTU21D;69198;44.694;37.790;2023-10-19T05:51:37;18.27;38.23
75190;HTU21D;69198;44.694;37.790;2023-10-19T05:52:38;18.40;37.69
75190;HTU21D;69198;44.694;37.790;2023-10-19T05:53:40;18.48;37.68
75190;HTU21D;69198;44.694;37.790;2023-10-19T05:54:42;18.59;37.25
75190;HTU21D;69198;44.694;37.790;2023-10-19T05:55:44;18.63;37.14
75190;HTU21D;69198;44.694;37.790;2023-10-19T05:56:45;18.64;36.76
75190;HTU21D;69198;44.694;37.790;2023-10-19T05:57:46;18.64;37.03
75190;HTU21D;69198;44.694;37.790;2023-10-19T05:58:47;18.73;36.84
75190;HTU21D;69198;44.694;37.790;2023-10-19T05:59:51;18.83;36.65
75190;HTU21D;69198;44.694;37.790;2023-10-19T06:00:52;18.92;36.65
75190;HTU21D;69198;44.694;37.790;2023-10-19T06:01:53;18.93;36.14
75190;HTU21D;69198;44.694;37.790;2023-10-19T06:02:54;18.95;36.33
75190;HTU21D;69198;44.694;37.790;2023-10-19T06:03:55;19.02;36.35
75190;HTU21D;69198;44.694;37.790;2023-10-19T06:04:56;19.08;36.27
75190;HTU21D;69198;44.694;37.790;2023-10-19T06:05:57;19.15;36.02
75190;HTU21D;69198;44.694;37.790;2023-10-19T06:06:58;19.14;35.73
75190;HTU21D;69198;44.694;37.790;2023-10-19T06:07:59;19.09;35.95
75190;HTU21D;69198;44.694;37.790;2023-10-19T06:09:00;19.10;35.90
75190;HTU21D;69198;44.694;37.790;2023-10-19T06:10:03;19.10;36.06
75190;HTU21D;69198;44.694;37.790;2023-10-19T06:11:07;19.12;35.98
75190;HTU21D;69198;44.694;37.790;2023-10-19T06:12:08;19.11;35.97
75190;HTU21D;69198;44.694;37.790;2023-10-19T06:13:10;19.10;36.05
75190;HTU21D;69198;44.694;37.790;2023-10-19T06:14:11;19.13;35.89
75190;HTU21D;69198;44.694;37.790;2023-10-19T06:15:12;19.10;35.80
75190;HTU21D;69198;44.694;37.790;2023-10-19T06:16:14;19.12;35.88
75190;HTU21D;69198;44.694;37.790;2023-10-19T06:17:15;19.14;35.66
75190;HTU21D;69198;44.694;37.790;2023-10-19T06:18:19;19.09;35.52
75190;HTU21D;69198;44.694;37.790;2023-10-19T06:19:20;19.08;35.79
75190;HTU21D;69198;44.694;37.790;2023-10-19T06:20:21;19.09;35.76
75190;HTU21D;69198;44.694;37.790;2023-10-19T06:21:26;19.09;35.76
75190;HTU21D;69198;44.694;37.790;2023-10-19T06:22:27;19.13;35.37
75190;HTU21D;69198;44.694;37.790;2023-10-19T06:23:29;19.10;35.43
75190;HTU21D;69198;44.694;37.790;2023-10-19T06:24:31;19.03;35.45
75190;HTU21D;69198;44.694;37.790;2023-10-19T06:25:33;19.00;35.69
75190;HTU21D;69198;44.694;37.790;2023-10-19T06:26:44;19.06;35.84
75190;HTU21D;69198;44.694;37.790;2023-10-19T06:27:46;19.13;35.73
75190;HTU21D;69198;44.694;37.790;2023-10-19T06:28:47;19.24;35.78
75190;HTU21D;69198;44.694;37.790;2023-10-19T06:29:48;19.33;35.46
75190;HTU21D;69198;44.694;37.790;2023-10-19T06:30:50;19.31;35.48
75190;HTU21D;69198;44.694;37.790;2023-10-19T06:31:51;19.27;35.76